sensor_id;sensor_type;location;lat;lon;timestamp;temperature;humidity
24049;DHT22;12250;50.956;4.746;2024-02-15T00:00:21;13.20;99.90
24049;DHT22;12250;50.956;4.746;2024-02-15T00:02:48;13.20;99.90
24049;DHT22;12250;50.956;4.746;2024-02-15T00:05:14;13.20;99.90
24049;DHT22;12250;50.956;4.746;2024-02-15T00:07:43;13.30;99.90
24049;DHT22;12250;50.956;4.746;2024-02-15T00:10:09;13.30;99.90
24049;DHT22;12250;50.956;4.746;2024-02-15T00:12:35;13.30;99.90
24049;DHT22;12250;50.956;4.746;2024-02-15T00:15:01;13.30;99.90
24049;DHT22;12250;50.956;4.746;2024-02-15T00:17:29;13.40;99.90
24049;DHT22;12250;50.956;4.746;2024-02-15T00:19:56;13.40;99.90
24049;DHT22;12250;50.956;4.746;2024-02-15T00:22:21;13.40;99.90
24049;DHT22;12250;50.956;4.746;2024-02-15T00:24:47;13.40;99.90
24049;DHT22;12250;50.956;4.746;2024-02-15T00:27:15;13.40;99.90
24049;DHT22;12250;50.956;4.746;2024-02-15T00:29:41;13.40;99.90
24049;DHT22;12250;50.956;4.746;2024-02-15T00:32:07;13.50;99.90
24049;DHT22;12250;50.956;4.746;2024-02-15T00:34:32;13.50;99.90
24049;DHT22;12250;50.956;4.746;2024-02-15T00:36:59;13.40;99.90
24049;DHT22;12250;50.956;4.746;2024-02-15T00:39:25;13.50;99.90
24049;DHT22;12250;50.956;4.746;2024-02-15T00:41:51;13.50;99.90
24049;DHT22;12250;50.956;4.746;2024-02-15T00:44:16;13.50;99.90
24049;DHT22;12250;50.956;4.746;2024-02-15T00:46:43;13.50;99.90
24049;DHT22;12250;50.956;4.746;2024-02-15T00:49:08;13.60;99.90
24049;DHT22;12250;50.956;4.746;2024-02-15T00:51:37;13.60;99.90
24049;DHT22;12250;50.956;4.746;2024-02-15T00:54:03;13.70;99.90
24049;DHT22;12250;50.956;4.746;2024-02-15T00:56:29;13.70;99.90
24049;DHT22;12250;50.956;4.746;2024-02-15T00:58:59;13.60;99.90
24049;DHT22;12250;50.956;4.746;2024-02-15T01:01:26;13.60;99.90
24049;DHT22;12250;50.956;4.746;2024-02-15T01:03:52;13.60;99.90
24049;DHT22;12250;50.956;4.746;2024-02-15T01:06:17;13.60;99.90
24049;DHT22;12250;50.956;4.746;2024-02-15T01:08:44;13.70;99.90
24049;DHT22;12250;50.956;4.746;2024-02-15T01:11:10;13.70;99.90
24049;DHT22;12250;50.956;4.746;2024-02-15T01:13:36;13.60;99.90
24049;DHT22;12250;50.956;4.746;2024-02-15T01:16:01;13.60;99.90
24049;DHT22;12250;50.956;4.746;2024-02-15T01:18:30;13.50;99.90
24049;DHT22;12250;50.956;4.746;2024-02-15T01:20:57;13.50;99.90
24049;DHT22;12250;50.956;4.746;2024-02-15T01:23:23;13.60;99.90
24049;DHT22;12250;50.956;4.746;2024-02-15T01:25:49;13.60;99.90
24049;DHT22;12250;50.956;4.746;2024-02-15T01:28:14;13.70;99.90
24049;DHT22;12250;50.956;4.746;2024-02-15T01:30:40;13.70;99.90
24049;DHT22;12250;50.956;4.746;2024-02-15T01:33:09;13.70;99.90
24049;DHT22;12250;50.956;4.746;2024-02-15T01:35:36;13.70;99.90
24049;DHT22;12250;50.956;4.746;2024-02-15T01:38:03;13.60;99.90
24049;DHT22;12250;50.956;4.746;2024-02-15T01:40:28;13.70;99.90
24049;DHT22;12250;50.956;4.746;2024-02-15T01:42:54;13.70;99.90
24049;DHT22;12250;50.956;4.746;2024-02-15T01:45:20;13.70;99.90
24049;DHT22;12250;50.956;4.746;2024-02-15T01:47:48;13.70;99.90
24049;DHT22;12250;50.956;4.746;2024-02-15T01:50:14;13.60;99.90
24049;DHT22;12250;50.956;4.746;2024-02-15T01:52:42;13.60;99.90
24049;DHT22;12250;50.956;4.746;2024-02-15T01:55:09;13.60;99.90
24049;DHT22;12250;50.956;4.746;2024-02-15T01:57:38;13.60;99.90
24049;DHT22;12250;50.956;4.746;2024-02-15T02:00:06;13.60;99.90
24049;DHT22;12250;50.956;4.746;2024-02-15T02:02:34;13.60;99.90
24049;DHT22;12250;50.956;4.746;2024-02-15T02:05:01;13.50;99.90
24049;DHT22;12250;50.956;4.746;2024-02-15T02:07:28;13.50;99.90
24049;DHT22;12250;50.956;4.746;2024-02-15T02:09:54;13.30;99.90
24049;DHT22;12250;50.956;4.746;2024-02-15T02:12:19;13.20;99.90
24049;DHT22;12250;50.956;4.746;2024-02-15T02:14:45;13.20;99.90
24049;DHT22;12250;50.956;4.746;2024-02-15T02:17:14;13.20;99.90
24049;DHT22;12250;50.956;4.746;2024-02-15T02:19:41;13.30;99.90
24049;DHT22;12250;50.956;4.746;2024-02-15T02:22:09;13.20;99.90
24049;DHT22;12250;50.956;4.746;2024-02-15T02:27:13;13.10;99.90
24049;DHT22;12250;50.956;4.746;2024-02-15T02:29:43;13.20;99.90
24049;DHT22;12250;50.956;4.746;2024-02-15T02:32:11;13.10;99.90
24049;DHT22;12250;50.956;4.746;2024-02-15T02:34:37;13.20;99.90
24049;DHT22;12250;50.956;4.746;2024-02-15T02:37:02;13.20;99.90
24049;DHT22;12250;50.956;4.746;2024-02-15T02:39:31;13.20;99.90
24049;DHT22;12250;50.956;4.746;2024-02-15T02:41:57;13.30;99.90
24049;DHT22;12250;50.956;4.746;2024-02-15T02:44:23;13.20;99.90
24049;DHT22;12250;50.956;4.746;2024-02-15T02:46:49;13.20;99.90
24049;DHT22;12250;50.956;4.746;2024-02-15T02:49:14;13.20;99.90
24049;DHT22;12250;50.956;4.746;2024-02-15T02:51:40;13.20;99.90
24049;DHT22;12250;50.956;4.746;2024-02-15T02:54:06;13.40;99.90
24049;DHT22;12250;50.956;4.746;2024-02-15T02:56:32;13.40;99.90
24049;DHT22;12250;50.956;4.746;2024-02-15T02:58:58;13.50;99.90
24049;DHT22;12250;50.956;4.746;2024-02-15T03:01:24;13.60;99.90
24049;DHT22;12250;50.956;4.746;2024-02-15T03:03:53;13.50;99.90
24049;DHT22;12250;50.956;4.746;2024-02-15T03:06:22;13.50;99.90
24049;DHT22;12250;50.956;4.746;2024-02-15T03:08:50;13.40;99.90
24049;DHT22;12250;50.956;4.746;2024-02-15T03:11:20;13.40;99.90
24049;DHT22;12250;50.956;4.746;2024-02-15T03:13:45;13.40;99.90
24049;DHT22;12250;50.956;4.746;2024-02-15T03:16:11;13.30;99.90
24049;DHT22;12250;50.956;4.746;2024-02-15T03:18:37;13.10;99.90
24049;DHT22;12250;50.956;4.746;2024-02-15T03:21:02;13.10;99.90
24049;DHT22;12250;50.956;4.746;2024-02-15T03:23:29;13.10;99.90
24049;DHT22;12250;50.956;4.746;2024-02-15T03:25:56;13.10;99.90
24049;DHT22;12250;50.956;4.746;2024-02-15T03:28:21;13.00;99.90
24049;DHT22;12250;50.956;4.746;2024-02-15T03:30:48;13.00;99.90
24049;DHT22;12250;50.956;4.746;2024-02-15T03:33:15;13.00;99.90
24049;DHT22;12250;50.956;4.746;2024-02-15T03:35:41;13.00;99.90
24049;DHT22;12250;50.956;4.746;2024-02-15T03:38:07;13.00;99.90
24049;DHT22;12250;50.956;4.746;2024-02-15T03:40:33;13.00;99.90
24049;DHT22;12250;50.956;4.746;2024-02-15T03:42:59;13.00;99.90
24049;DHT22;12250;50.956;4.746;2024-02-15T03:45:25;13.10;99.90
24049;DHT22;12250;50.956;4.746;2024-02-15T03:47:52;13.10;99.90
24049;DHT22;12250;50.956;4.746;2024-02-15T03:50:18;13.10;99.90
24049;DHT22;12250;50.956;4.746;2024-02-15T03:52:46;13.00;99.90
24049;DHT22;12250;50.956;4.746;2024-02-15T03:55:11;12.90;99.90
24049;DHT22;12250;50.956;4.746;2024-02-15T03:57:40;13.00;99.90
24049;DHT22;12250;50.956;4.746;2024-02-15T04:00:07;13.00;99.90
24049;DHT22;12250;50.956;4.746;2024-02-15T04:02:35;13.00;99.90
24049;DHT22;12250;50.956;4.746;2024-02-15T04:05:01;13.00;99.90
24049;DHT22;12250;50.956;4.746;2024-02-15T04:07:30;13.00;99.90
24049;DHT22;12250;50.956;4.746;2024-02-15T04:09:56;12.90;99.90
24049;DHT22;12250;50.956;4.746;2024-02-15T04:12:22;12.80;99.90
24049;DHT22;12250;50.956;4.746;2024-02-15T04:14:48;12.90;99.90
24049;DHT22;12250;50.956;4.746;2024-02-15T04:17:14;12.80;99.90
24049;DHT22;12250;50.956;4.746;2024-02-15T04:19:45;12.80;99.90
24049;DHT22;12250;50.956;4.746;2024-02-15T04:22:12;12.80;99.90
24049;DHT22;12250;50.956;4.746;2024-02-15T04:24:37;12.90;99.90
24049;DHT22;12250;50.956;4.746;2024-02-15T04:27:06;12.80;99.90
24049;DHT22;12250;50.956;4.746;2024-02-15T04:29:39;12.90;99.90
24049;DHT22;12250;50.956;4.746;2024-02-15T04:32:10;13.00;99.90
24049;DHT22;12250;50.956;4.746;2024-02-15T04:34:37;13.00;99.90
24049;DHT22;12250;50.956;4.746;2024-02-15T04:37:04;13.00;99.90
24049;DHT22;12250;50.956;4.746;2024-02-15T04:39:36;13.00;99.90
24049;DHT22;12250;50.956;4.746;2024-02-15T04:42:03;12.90;99.90
24049;DHT22;12250;50.956;4.746;2024-02-15T04:44:30;12.90;99.90
24049;DHT22;12250;50.956;4.746;2024-02-15T04:46:57;12.90;99.90
24049;DHT22;12250;50.956;4.746;2024-02-15T04:49:24;12.90;99.90
24049;DHT22;12250;50.956;4.746;2024-02-15T04:51:49;13.00;99.90
24049;DHT22;12250;50.956;4.746;2024-02-15T04:54:15;13.00;99.90
24049;DHT22;12250;50.956;4.746;2024-02-15T04:56:41;13.00;99.90
24049;DHT22;12250;50.956;4.746;2024-02-15T04:59:08;12.90;99.90
24049;DHT22;12250;50.956;4.746;2024-02-15T05:01:37;13.00;99.90
24049;DHT22;12250;50.956;4.746;2024-02-15T05:04:02;12.90;99.90
24049;DHT22;12250;50.956;4.746;2024-02-15T05:06:33;12.90;99.90
24049;DHT22;12250;50.956;4.746;2024-02-15T05:08:59;12.90;99.90
24049;DHT22;12250;50.956;4.746;2024-02-15T05:11:26;12.90;99.90
24049;DHT22;12250;50.956;4.746;2024-02-15T05:13:51;12.90;99.90
24049;DHT22;12250;50.956;4.746;2024-02-15T05:16:18;12.90;99.90
24049;DHT22;12250;50.956;4.746;2024-02-15T05:18:44;12.80;99.90
24049;DHT22;12250;50.956;4.746;2024-02-15T05:21:11;12.80;99.90
24049;DHT22;12250;50.956;4.746;2024-02-15T05:23:38;12.70;99.90
24049;DHT22;12250;50.956;4.746;2024-02-15T05:26:05;12.70;99.90
24049;DHT22;12250;50.956;4.746;2024-02-15T05:28:32;12.80;99.90
24049;DHT22;12250;50.956;4.746;2024-02-15T05:33:42;12.80;99.90
24049;DHT22;12250;50.956;4.746;2024-02-15T05:36:15;12.80;99.90
24049;DHT22;12250;50.956;4.746;2024-02-15T05:38:41;12.80;99.90
24049;DHT22;12250;50.956;4.746;2024-02-15T05:41:11;12.80;99.90
24049;DHT22;12250;50.956;4.746;2024-02-15T05:43:37;12.80;99.90
24049;DHT22;12250;50.956;4.746;2024-02-15T05:46:03;12.80;99.90
24049;DHT22;12250;50.956;4.746;2024-02-15T05:48:29;12.70;99.90
24049;DHT22;12250;50.956;4.746;2024-02-15T05:50:55;12.70;99.90
24049;DHT22;12250;50.956;4.746;2024-02-15T05:53:23;12.70;99.90
24049;DHT22;12250;50.956;4.746;2024-02-15T05:55:49;12.80;99.90
24049;DHT22;12250;50.956;4.746;2024-02-15T05:58:15;12.80;99.90
24049;DHT22;12250;50.956;4.746;2024-02-15T06:00:41;12.80;99.90
24049;DHT22;12250;50.956;4.746;2024-02-15T06:03:06;12.80;99.90
24049;DHT22;12250;50.956;4.746;2024-02-15T06:05:34;12.70;99.90
24049;DHT22;12250;50.956;4.746;2024-02-15T06:08:00;12.70;99.90
24049;DHT22;12250;50.956;4.746;2024-02-15T06:10:26;12.70;99.90
24049;DHT22;12250;50.956;4.746;2024-02-15T06:12:52;12.60;99.90
24049;DHT22;12250;50.956;4.746;2024-02-15T06:15:18;12.70;99.90
24049;DHT22;12250;50.956;4.746;2024-02-15T06:17:44;12.70;99.90
24049;DHT22;12250;50.956;4.746;2024-02-15T06:20:13;12.70;99.90
24049;DHT22;12250;50.956;4.746;2024-02-15T06:22:40;12.70;99.90
24049;DHT22;12250;50.956;4.746;2024-02-15T06:25:06;12.60;99.90
24049;DHT22;12250;50.956;4.746;2024-02-15T06:27:31;12.60;99.90
24049;DHT22;12250;50.956;4.746;2024-02-15T06:29:58;12.70;99.90
24049;DHT22;12250;50.956;4.746;2024-02-15T06:32:43;12.70;99.90
24049;DHT22;12250;50.956;4.746;2024-02-15T06:35:32;12.60;99.90
24049;DHT22;12250;50.956;4.746;2024-02-15T06:38:16;12.60;99.90
24049;DHT22;12250;50.956;4.746;2024-02-15T06:41:00;12.60;99.90
24049;DHT22;12250;50.956;4.746;2024-02-15T06:43:26;12.60;99.90
24049;DHT22;12250;50.956;4.746;2024-02-15T06:45:51;12.60;99.90
24049;DHT22;12250;50.956;4.746;2024-02-15T06:48:17;12.60;99.90
24049;DHT22;12250;50.956;4.746;2024-02-15T06:50:43;12.60;99.90
24049;DHT22;12250;50.956;4.746;2024-02-15T06:53:08;12.60;99.90
24049;DHT22;12250;50.956;4.746;2024-02-15T06:55:37;12.60;99.90
24049;DHT22;12250;50.956;4.746;2024-02-15T06:58:03;12.50;99.90
24049;DHT22;12250;50.956;4.746;2024-02-15T07:00:28;12.50;99.90
24049;DHT22;12250;50.956;4.746;2024-02-15T07:02:56;12.50;99.90
24049;DHT22;12250;50.956;4.746;2024-02-15T07:05:21;12.40;99.90
24049;DHT22;12250;50.956;4.746;2024-02-15T07:07:49;12.50;99.90
24049;DHT22;12250;50.956;4.746;2024-02-15T07:10:15;12.40;99.90
24049;DHT22;12250;50.956;4.746;2024-02-15T07:12:42;12.40;99.90
24049;DHT22;12250;50.956;4.746;2024-02-15T07:15:09;12.40;99.90
24049;DHT22;12250;50.956;4.746;2024-02-15T07:17:35;12.40;99.90
24049;DHT22;12250;50.956;4.746;2024-02-15T07:20:05;12.50;99.90
24049;DHT22;12250;50.956;4.746;2024-02-15T07:22:32;12.50;99.90
24049;DHT22;12250;50.956;4.746;2024-02-15T07:24:57;12.50;99.90
24049;DHT22;12250;50.956;4.746;2024-02-15T07:27:23;12.40;99.90
24049;DHT22;12250;50.956;4.746;2024-02-15T07:29:51;12.50;99.90
24049;DHT22;12250;50.956;4.746;2024-02-15T07:32:17;12.50;99.90
24049;DHT22;12250;50.956;4.746;2024-02-15T07:34:43;12.60;99.90
24049;DHT22;12250;50.956;4.746;2024-02-15T07:37:11;12.70;99.90
24049;DHT22;12250;50.956;4.746;2024-02-15T07:39:38;12.70;99.90
24049;DHT22;12250;50.956;4.746;2024-02-15T07:42:05;12.70;99.90
24049;DHT22;12250;50.956;4.746;2024-02-15T07:44:32;12.80;99.90
24049;DHT22;12250;50.956;4.746;2024-02-15T07:47:00;12.80;99.90
24049;DHT22;12250;50.956;4.746;2024-02-15T07:49:26;12.90;99.90
24049;DHT22;12250;50.956;4.746;2024-02-15T07:51:52;13.00;99.90
24049;DHT22;12250;50.956;4.746;2024-02-15T07:54:20;13.10;99.90
24049;DHT22;12250;50.956;4.746;2024-02-15T07:56:47;13.20;99.90
24049;DHT22;12250;50.956;4.746;2024-02-15T07:59:14;13.20;99.90
24049;DHT22;12250;50.956;4.746;2024-02-15T08:01:42;13.30;99.90
24049;DHT22;12250;50.956;4.746;2024-02-15T08:04:09;13.30;99.90
24049;DHT22;12250;50.956;4.746;2024-02-15T08:06:34;13.50;99.90
24049;DHT22;12250;50.956;4.746;2024-02-15T08:09:02;13.60;99.90
24049;DHT22;12250;50.956;4.746;2024-02-15T08:11:31;13.60;99.90
24049;DHT22;12250;50.956;4.746;2024-02-15T08:13:56;13.60;99.90
24049;DHT22;12250;50.956;4.746;2024-02-15T08:16:25;13.70;99.90
24049;DHT22;12250;50.956;4.746;2024-02-15T08:18:53;13.80;99.90
24049;DHT22;12250;50.956;4.746;2024-02-15T08:21:32;13.90;99.90
24049;DHT22;12250;50.956;4.746;2024-02-15T08:24:04;13.90;99.90
24049;DHT22;12250;50.956;4.746;2024-02-15T08:26:38;13.90;99.90
24049;DHT22;12250;50.956;4.746;2024-02-15T08:29:04;14.00;99.90
24049;DHT22;12250;50.956;4.746;2024-02-15T08:31:31;14.00;99.90
24049;DHT22;12250;50.956;4.746;2024-02-15T08:33:57;14.20;99.90
24049;DHT22;12250;50.956;4.746;2024-02-15T08:36:23;14.20;99.90
24049;DHT22;12250;50.956;4.746;2024-02-15T08:38:50;14.40;99.90
24049;DHT22;12250;50.956;4.746;2024-02-15T08:41:16;14.50;99.90
24049;DHT22;12250;50.956;4.746;2024-02-15T08:43:46;14.60;99.90
24049;DHT22;12250;50.956;4.746;2024-02-15T08:46:14;14.70;99.90
24049;DHT22;12250;50.956;4.746;2024-02-15T08:48:39;14.80;99.90
24049;DHT22;12250;50.956;4.746;2024-02-15T08:51:06;14.90;99.90
24049;DHT22;12250;50.956;4.746;2024-02-15T08:53:34;15.00;99.90
24049;DHT22;12250;50.956;4.746;2024-02-15T08:56:03;15.20;99.90
24049;DHT22;12250;50.956;4.746;2024-02-15T08:58:28;15.30;99.90
24049;DHT22;12250;50.956;4.746;2024-02-15T09:00:56;15.40;99.90
24049;DHT22;12250;50.956;4.746;2024-02-15T09:03:22;15.50;99.90
24049;DHT22;12250;50.956;4.746;2024-02-15T09:05:47;15.60;99.90
24049;DHT22;12250;50.956;4.746;2024-02-15T09:08:13;15.80;99.90
24049;DHT22;12250;50.956;4.746;2024-02-15T09:10:41;15.80;99.90
24049;DHT22;12250;50.956;4.746;2024-02-15T09:13:08;15.90;99.90
24049;DHT22;12250;50.956;4.746;2024-02-15T09:15:34;15.90;99.90
24049;DHT22;12250;50.956;4.746;2024-02-15T09:18:01;15.90;99.90
24049;DHT22;12250;50.956;4.746;2024-02-15T09:20:27;15.80;99.90
24049;DHT22;12250;50.956;4.746;2024-02-15T09:22:54;15.90;99.90
24049;DHT22;12250;50.956;4.746;2024-02-15T09:25:22;16.00;99.90
24049;DHT22;12250;50.956;4.746;2024-02-15T09:27:51;16.20;99.90
24049;DHT22;12250;50.956;4.746;2024-02-15T09:30:17;16.40;99.90
24049;DHT22;12250;50.956;4.746;2024-02-15T09:32:44;16.60;99.90
24049;DHT22;12250;50.956;4.746;2024-02-15T09:35:11;16.80;99.90
24049;DHT22;12250;50.956;4.746;2024-02-15T09:37:47;16.90;99.90
24049;DHT22;12250;50.956;4.746;2024-02-15T09:40:15;16.90;99.90
24049;DHT22;12250;50.956;4.746;2024-02-15T09:42:43;16.90;99.90
24049;DHT22;12250;50.956;4.746;2024-02-15T09:45:11;16.80;99.90
24049;DHT22;12250;50.956;4.746;2024-02-15T09:47:40;16.90;99.90
24049;DHT22;12250;50.956;4.746;2024-02-15T09:50:07;17.00;99.90
24049;DHT22;12250;50.956;4.746;2024-02-15T09:52:34;17.20;99.90
24049;DHT22;12250;50.956;4.746;2024-02-15T09:55:03;17.40;99.90
24049;DHT22;12250;50.956;4.746;2024-02-15T09:57:29;17.60;99.90
24049;DHT22;12250;50.956;4.746;2024-02-15T09:59:58;17.90;99.90
24049;DHT22;12250;50.956;4.746;2024-02-15T10:02:26;18.20;99.90
24049;DHT22;12250;50.956;4.746;2024-02-15T10:04:53;18.50;99.90
24049;DHT22;12250;50.956;4.746;2024-02-15T10:07:23;18.70;99.90
24049;DHT22;12250;50.956;4.746;2024-02-15T10:09:49;19.00;99.90
24049;DHT22;12250;50.956;4.746;2024-02-15T10:12:14;19.30;99.90
24049;DHT22;12250;50.956;4.746;2024-02-15T10:14:47;19.10;99.90
24049;DHT22;12250;50.956;4.746;2024-02-15T10:17:15;18.90;99.90
24049;DHT22;12250;50.956;4.746;2024-02-15T10:19:42;18.80;99.90
24049;DHT22;12250;50.956;4.746;2024-02-15T10:22:10;18.90;99.90
24049;DHT22;12250;50.956;4.746;2024-02-15T10:24:37;18.90;99.90
24049;DHT22;12250;50.956;4.746;2024-02-15T10:27:05;19.00;99.90
24049;DHT22;12250;50.956;4.746;2024-02-15T10:29:36;18.90;99.90
24049;DHT22;12250;50.956;4.746;2024-02-15T10:32:03;18.80;99.90
24049;DHT22;12250;50.956;4.746;2024-02-15T10:34:30;18.30;99.90
24049;DHT22;12250;50.956;4.746;2024-02-15T10:37:13;18.20;99.90
24049;DHT22;12250;50.956;4.746;2024-02-15T10:39:39;18.20;99.90
24049;DHT22;12250;50.956;4.746;2024-02-15T10:42:07;18.20;99.90
24049;DHT22;12250;50.956;4.746;2024-02-15T10:44:37;18.20;99.90
24049;DHT22;12250;50.956;4.746;2024-02-15T10:47:04;18.30;99.90
24049;DHT22;12250;50.956;4.746;2024-02-15T10:49:34;18.10;99.90
24049;DHT22;12250;50.956;4.746;2024-02-15T10:52:01;18.20;99.90
24049;DHT22;12250;50.956;4.746;2024-02-15T10:57:15;18.50;99.90
24049;DHT22;12250;50.956;4.746;2024-02-15T10:59:55;18.40;99.90
24049;DHT22;12250;50.956;4.746;2024-02-15T11:02:30;18.50;99.90
24049;DHT22;12250;50.956;4.746;2024-02-15T11:05:08;18.70;99.90
24049;DHT22;12250;50.956;4.746;2024-02-15T11:07:37;18.70;99.90
24049;DHT22;12250;50.956;4.746;2024-02-15T11:10:05;19.00;99.90
24049;DHT22;12250;50.956;4.746;2024-02-15T11:12:36;19.30;99.90
24049;DHT22;12250;50.956;4.746;2024-02-15T11:15:04;19.30;99.90
24049;DHT22;12250;50.956;4.746;2024-02-15T11:20:06;19.70;99.90
24049;DHT22;12250;50.956;4.746;2024-02-15T11:22:35;19.60;99.90
24049;DHT22;12250;50.956;4.746;2024-02-15T11:25:03;19.30;99.90
24049;DHT22;12250;50.956;4.746;2024-02-15T11:27:35;19.30;99.90
24049;DHT22;12250;50.956;4.746;2024-02-15T11:30:06;19.50;99.90
24049;DHT22;12250;50.956;4.746;2024-02-15T11:32:45;19.60;99.90
24049;DHT22;12250;50.956;4.746;2024-02-15T11:35:16;19.70;99.90
24049;DHT22;12250;50.956;4.746;2024-02-15T11:40:17;19.40;99.90
24049;DHT22;12250;50.956;4.746;2024-02-15T11:42:44;19.40;99.90
24049;DHT22;12250;50.956;4.746;2024-02-15T11:45:10;19.50;99.90
24049;DHT22;12250;50.956;4.746;2024-02-15T11:47:40;19.30;99.90
24049;DHT22;12250;50.956;4.746;2024-02-15T11:50:10;19.10;99.90
24049;DHT22;12250;50.956;4.746;2024-02-15T11:52:44;18.80;99.90
24049;DHT22;12250;50.956;4.746;2024-02-15T11:55:11;18.80;99.90
24049;DHT22;12250;50.956;4.746;2024-02-15T11:57:41;18.70;99.90
24049;DHT22;12250;50.956;4.746;2024-02-15T12:00:22;18.40;99.90
24049;DHT22;12250;50.956;4.746;2024-02-15T12:03:06;18.40;99.90
24049;DHT22;12250;50.956;4.746;2024-02-15T12:05:51;18.50;99.90
24049;DHT22;12250;50.956;4.746;2024-02-15T12:08:41;18.30;99.90
24049;DHT22;12250;50.956;4.746;2024-02-15T12:11:27;18.40;99.90
24049;DHT22;12250;50.956;4.746;2024-02-15T12:14:15;18.60;99.90
24049;DHT22;12250;50.956;4.746;2024-02-15T12:17:13;18.80;99.90
24049;DHT22;12250;50.956;4.746;2024-02-15T12:20:00;19.00;99.90
24049;DHT22;12250;50.956;4.746;2024-02-15T12:22:31;19.10;99.90
24049;DHT22;12250;50.956;4.746;2024-02-15T12:25:01;19.20;99.90
24049;DHT22;12250;50.956;4.746;2024-02-15T12:27:31;19.40;99.90
24049;DHT22;12250;50.956;4.746;2024-02-15T12:29:57;19.20;99.90
24049;DHT22;12250;50.956;4.746;2024-02-15T12:32:27;19.30;99.90
24049;DHT22;12250;50.956;4.746;2024-02-15T12:35:01;19.00;99.90
24049;DHT22;12250;50.956;4.746;2024-02-15T12:37:35;19.30;99.90
24049;DHT22;12250;50.956;4.746;2024-02-15T12:40:13;19.00;99.90
24049;DHT22;12250;50.956;4.746;2024-02-15T12:42:46;19.00;99.90
24049;DHT22;12250;50.956;4.746;2024-02-15T12:45:16;18.80;99.90
24049;DHT22;12250;50.956;4.746;2024-02-15T12:47:55;18.50;99.90
24049;DHT22;12250;50.956;4.746;2024-02-15T12:50:29;18.50;99.90
24049;DHT22;12250;50.956;4.746;2024-02-15T12:52:55;18.50;99.90
24049;DHT22;12250;50.956;4.746;2024-02-15T12:55:22;18.40;99.90
24049;DHT22;12250;50.956;4.746;2024-02-15T12:57:53;18.40;99.90
24049;DHT22;12250;50.956;4.746;2024-02-15T13:00:25;18.30;99.90
24049;DHT22;12250;50.956;4.746;2024-02-15T13:02:55;18.30;99.90
24049;DHT22;12250;50.956;4.746;2024-02-15T13:05:22;18.30;99.90
24049;DHT22;12250;50.956;4.746;2024-02-15T13:07:49;18.50;99.90
24049;DHT22;12250;50.956;4.746;2024-02-15T13:10:15;18.70;99.90
24049;DHT22;12250;50.956;4.746;2024-02-15T13:12:41;18.90;99.90
24049;DHT22;12250;50.956;4.746;2024-02-15T13:15:09;18.80;99.90
24049;DHT22;12250;50.956;4.746;2024-02-15T13:17:40;19.00;99.90
24049;DHT22;12250;50.956;4.746;2024-02-15T13:20:08;19.30;99.90
24049;DHT22;12250;50.956;4.746;2024-02-15T13:22:38;19.60;99.90
24049;DHT22;12250;50.956;4.746;2024-02-15T13:25:08;19.70;99.90
24049;DHT22;12250;50.956;4.746;2024-02-15T13:27:37;19.90;99.90
24049;DHT22;12250;50.956;4.746;2024-02-15T13:30:05;20.00;99.90
24049;DHT22;12250;50.956;4.746;2024-02-15T13:32:35;20.00;99.90
24049;DHT22;12250;50.956;4.746;2024-02-15T13:35:03;19.60;99.90
24049;DHT22;12250;50.956;4.746;2024-02-15T13:37:33;19.50;99.90
24049;DHT22;12250;50.956;4.746;2024-02-15T13:39:59;19.60;99.90
24049;DHT22;12250;50.956;4.746;2024-02-15T13:42:24;19.70;99.90
24049;DHT22;12250;50.956;4.746;2024-02-15T13:44:50;19.80;99.90
24049;DHT22;12250;50.956;4.746;2024-02-15T13:47:16;19.80;99.90
24049;DHT22;12250;50.956;4.746;2024-02-15T13:49:42;19.90;99.90
24049;DHT22;12250;50.956;4.746;2024-02-15T13:52:09;19.90;99.90
24049;DHT22;12250;50.956;4.746;2024-02-15T13:54:36;19.70;99.90
24049;DHT22;12250;50.956;4.746;2024-02-15T13:57:03;19.70;99.90
24049;DHT22;12250;50.956;4.746;2024-02-15T13:59:29;19.70;99.90
24049;DHT22;12250;50.956;4.746;2024-02-15T14:01:57;19.80;99.90
24049;DHT22;12250;50.956;4.746;2024-02-15T14:04:23;19.80;99.90
24049;DHT22;12250;50.956;4.746;2024-02-15T14:06:49;19.60;99.90
24049;DHT22;12250;50.956;4.746;2024-02-15T14:09:15;19.50;99.90
24049;DHT22;12250;50.956;4.746;2024-02-15T14:11:42;19.30;99.90
24049;DHT22;12250;50.956;4.746;2024-02-15T14:14:08;19.30;99.90
24049;DHT22;12250;50.956;4.746;2024-02-15T14:16:34;19.30;99.90
24049;DHT22;12250;50.956;4.746;2024-02-15T14:19:00;19.30;99.90
24049;DHT22;12250;50.956;4.746;2024-02-15T14:21:29;19.20;99.90
24049;DHT22;12250;50.956;4.746;2024-02-15T14:23:57;19.00;99.90
24049;DHT22;12250;50.956;4.746;2024-02-15T14:26:23;18.90;99.90
24049;DHT22;12250;50.956;4.746;2024-02-15T14:28:52;18.70;99.90
24049;DHT22;12250;50.956;4.746;2024-02-15T14:31:18;18.70;99.90
24049;DHT22;12250;50.956;4.746;2024-02-15T14:34:02;18.50;99.90
24049;DHT22;12250;50.956;4.746;2024-02-15T14:36:28;18.50;99.90
24049;DHT22;12250;50.956;4.746;2024-02-15T14:38:53;18.40;99.90
24049;DHT22;12250;50.956;4.746;2024-02-15T14:41:20;18.30;99.90
24049;DHT22;12250;50.956;4.746;2024-02-15T14:43:46;18.20;99.90
24049;DHT22;12250;50.956;4.746;2024-02-15T14:46:12;18.10;99.90
24049;DHT22;12250;50.956;4.746;2024-02-15T14:48:37;18.00;99.90
24049;DHT22;12250;50.956;4.746;2024-02-15T14:51:05;18.00;99.90
24049;DHT22;12250;50.956;4.746;2024-02-15T14:53:31;18.00;99.90
24049;DHT22;12250;50.956;4.746;2024-02-15T14:55:57;17.90;99.90
24049;DHT22;12250;50.956;4.746;2024-02-15T14:58:23;17.90;99.90
24049;DHT22;12250;50.956;4.746;2024-02-15T15:00:48;17.90;99.90
24049;DHT22;12250;50.956;4.746;2024-02-15T15:03:15;17.90;99.90
24049;DHT22;12250;50.956;4.746;2024-02-15T15:05:44;17.80;99.90
24049;DHT22;12250;50.956;4.746;2024-02-15T15:08:28;17.70;99.90
24049;DHT22;12250;50.956;4.746;2024-02-15T15:11:12;17.70;99.90
24049;DHT22;12250;50.956;4.746;2024-02-15T15:13:56;17.80;99.90
24049;DHT22;12250;50.956;4.746;2024-02-15T15:16:23;17.70;99.90
24049;DHT22;12250;50.956;4.746;2024-02-15T15:18:51;17.60;99.90
24049;DHT22;12250;50.956;4.746;2024-02-15T15:21:18;17.60;99.90
24049;DHT22;12250;50.956;4.746;2024-02-15T15:23:44;17.50;99.90
24049;DHT22;12250;50.956;4.746;2024-02-15T15:26:11;17.40;99.90
24049;DHT22;12250;50.956;4.746;2024-02-15T15:28:37;17.40;99.90
24049;DHT22;12250;50.956;4.746;2024-02-15T15:31:03;17.30;99.90
24049;DHT22;12250;50.956;4.746;2024-02-15T15:33:30;17.20;99.90
24049;DHT22;12250;50.956;4.746;2024-02-15T15:35:59;17.20;99.90
24049;DHT22;12250;50.956;4.746;2024-02-15T15:38:26;17.10;99.90
24049;DHT22;12250;50.956;4.746;2024-02-15T15:40:52;17.10;99.90
24049;DHT22;12250;50.956;4.746;2024-02-15T15:43:19;17.00;99.90
24049;DHT22;12250;50.956;4.746;2024-02-15T15:45:45;17.00;99.90
24049;DHT22;12250;50.956;4.746;2024-02-15T15:48:11;17.00;99.90